createdAt,value
2022-09-22T00:04:58.512Z,2310.34534
2022-09-22T00:20:00.357Z,2276.97587
2022-09-22T00:35:02.193Z,2263.51402
2022-09-22T00:50:04.037Z,2259.69697
2022-09-22T01:05:06.074Z,2170.04099
2022-09-22T01:20:08.240Z,2098.66926
2022-09-22T01:35:10.425Z,1994.04812
2022-09-22T01:50:12.494Z,1917.02482
2022-09-22T02:05:14.605Z,1841.9249
2022-09-22T02:20:16.799Z,1815.71865
2022-09-22T02:35:18.727Z,1772.48727
2022-09-22T02:50:20.747Z,1744.79216
2022-09-22T03:05:22.633Z,1734.62833
2022-09-22T03:20:24.497Z,1880.70225
2022-09-22T03:35:26.349Z,1953.35327
2022-09-22T03:50:28.183Z,1950.50996
2022-09-22T04:05:30.025Z,1966.25142
2022-09-22T04:20:31.857Z,2048.93016
2022-09-22T04:35:33.679Z,1983.71627
2022-09-22T04:50:35.541Z,1838.13493
2022-09-22T05:05:37.415Z,1665.63132
2022-09-22T05:20:39.254Z,1527.93664
2022-09-22T05:35:41.088Z,1454.9408
2022-09-22T05:50:42.905Z,1391.48546
2022-09-22T06:05:44.698Z,1353.53586
2022-09-22T06:20:46.549Z,1313.726
2022-09-22T06:35:48.411Z,1272.55511
2022-09-22T06:50:50.232Z,1251.16764
2022-09-22T07:05:52.081Z,1225.98404
2022-09-22T07:20:53.929Z,854.59233
2022-09-22T07:35:55.778Z,800.0005
2022-09-22T07:50:57.605Z,682.99098
2022-09-22T08:06:03.862Z,216.87432
2022-09-22T08:21:07.757Z,232.1622
2022-09-22T08:36:09.583Z,253.42047
2022-09-22T08:51:11.440Z,272.5014
2022-09-22T09:06:13.294Z,293.63868
2022-09-22T09:21:15.133Z,318.33086
2022-09-22T09:51:18.762Z,375.70731
2022-09-22T10:06:20.615Z,408.8769
2022-09-22T10:21:22.520Z,442.97248
2022-09-22T10:36:24.368Z,472.35806
2022-09-22T10:51:26.195Z,505.91937
2022-09-22T11:06:28.010Z,357.36225
2022-09-22T11:21:29.876Z,841.70904
2022-09-22T11:36:31.707Z,1025.24916
2022-09-22T11:51:33.563Z,1103.78963
2022-09-22T12:06:35.389Z,1154.17794
2022-09-22T12:21:37.268Z,1231.61815
2022-09-22T12:36:39.090Z,1292.18952
2022-09-22T12:51:40.946Z,1370.14366
2022-09-22T13:06:42.811Z,1431.62445
2022-09-22T13:21:44.655Z,1516.69545
2022-09-22T13:36:46.507Z,1605.75244
2022-09-22T13:51:48.342Z,1704.8351
2022-09-22T14:06:50.163Z,1791.44435
2022-09-22T14:21:52.017Z,1836.87507
2022-09-22T14:36:53.887Z,1917.02482
2022-09-22T14:51:55.732Z,1961.93315
2022-09-22T15:06:57.361Z,2027.23197
2022-09-22T15:21:59.184Z,2055.21523
2022-09-22T15:37:01.070Z,2069.49857
2022-09-22T15:52:03.132Z,2071.09787
2022-09-22T16:07:04.977Z,2088.85475
2022-09-22T16:22:06.797Z,2101.96129
2022-09-22T16:37:08.616Z,2137.16159
2022-09-22T16:52:10.444Z,2175.32518
2022-09-22T17:07:12.254Z,2198.52388
2022-09-22T17:22:14.076Z,2200.32891
2022-09-22T17:37:15.901Z,2085.60361
2022-09-22T17:52:17.745Z,1967.69507
2022-09-22T18:07:19.552Z,1970.58873
2022-09-22T18:22:21.391Z,1949.09141
2022-09-22T18:37:23.219Z,1922.52561
2022-09-22T18:52:25.046Z,1947.67492
2022-09-22T19:07:26.897Z,1911.55542
2022-09-22T19:22:28.729Z,1867.59632
2022-09-22T19:37:30.541Z,1815.71865
2022-09-22T19:52:32.887Z,1805.93042
2022-09-22T20:07:34.739Z,1802.28698
2022-09-22T20:22:36.572Z,1834.36052
2022-09-22T20:37:38.420Z,1810.81131
2022-09-22T20:52:40.259Z,1747.06699
2022-09-22T21:07:42.083Z,1744.79216
2022-09-22T21:22:43.927Z,1707.00686
2022-09-22T21:37:45.782Z,1702.66886
2022-09-22T21:52:47.609Z,1677.09686
2022-09-22T22:07:49.431Z,1760.84149
2022-09-22T22:22:51.283Z,1928.05805
2022-09-22T22:37:53.115Z,1678.14702
2022-09-22T22:52:54.969Z,1612.51554
2022-09-22T23:07:56.822Z,1542.89053
2022-09-22T23:22:58.645Z,1559.95393
2022-09-22T23:38:00.515Z,1497.20722
2022-09-22T23:53:02.375Z,1224.86339
